createdAt,value
2017-01-16T00:01:00.193Z,0
2017-01-16T00:03:12.470Z,0
2017-01-16T00:05:24.693Z,0
2017-01-16T00:07:37.100Z,0
2017-01-16T00:09:49.437Z,0
2017-01-16T00:12:01.918Z,0
2017-01-16T00:14:14.412Z,0
2017-01-16T00:16:26.952Z,0
2017-01-16T00:18:39.154Z,0
2017-01-16T00:20:51.291Z,0
2017-01-16T00:23:03.480Z,0
2017-01-16T00:25:15.764Z,0
2017-01-16T00:27:28.156Z,0
2017-01-16T00:29:35.555Z,0
2017-01-16T00:31:42.865Z,0
2017-01-16T00:33:55.049Z,0
2017-01-16T00:36:07.502Z,0
2017-01-16T00:38:14.898Z,0
2017-01-16T00:40:27.262Z,0
2017-01-16T00:42:39.418Z,0
2017-01-16T00:44:41.830Z,0
2017-01-16T00:46:54.283Z,0
2017-01-16T00:49:06.706Z,0
2017-01-16T00:51:19.007Z,0
2017-01-16T00:53:31.255Z,0
2017-01-16T00:55:43.403Z,0
2017-01-16T00:57:55.916Z,0
2017-01-16T01:00:08.360Z,0
2017-01-16T01:02:20.822Z,0
2017-01-16T01:04:33.170Z,0
2017-01-16T01:06:45.337Z,0
2017-01-16T01:08:57.746Z,0
2017-01-16T01:11:10.039Z,0
2017-01-16T01:13:22.473Z,0
2017-01-16T01:15:29.645Z,0
2017-01-16T01:17:41.864Z,0
2017-01-16T01:19:54.094Z,0
2017-01-16T01:22:06.869Z,0
2017-01-16T01:24:14.165Z,0
2017-01-16T01:26:21.522Z,0
2017-01-16T01:28:33.738Z,0
2017-01-16T01:30:46.080Z,0
2017-01-16T01:32:53.393Z,0
2017-01-16T01:35:05.691Z,0
2017-01-16T01:37:18.128Z,0
2017-01-16T01:39:30.366Z,0
2017-01-16T01:41:32.765Z,0
2017-01-16T01:43:45.031Z,0
2017-01-16T01:45:57.275Z,0
2017-01-16T01:48:09.617Z,0
2017-01-16T01:50:21.849Z,0
2017-01-16T01:52:34.034Z,0
2017-01-16T01:54:46.937Z,0
2017-01-16T01:56:59.193Z,0
2017-01-16T01:59:11.572Z,0
2017-01-16T02:01:18.891Z,0
2017-01-16T02:03:31.110Z,0
2017-01-16T02:05:38.495Z,0
2017-01-16T02:07:50.652Z,0
2017-01-16T02:10:02.988Z,0
2017-01-16T02:12:15.189Z,0
2017-01-16T02:14:27.465Z,0
2017-01-16T02:16:39.956Z,0
2017-01-16T02:18:47.279Z,0
2017-01-16T02:20:59.668Z,0
2017-01-16T02:23:11.930Z,0
2017-01-16T02:25:24.358Z,0
2017-01-16T02:27:37.089Z,0
2017-01-16T02:29:49.332Z,0
2017-01-16T02:32:01.532Z,0
2017-01-16T02:34:13.865Z,0
2017-01-16T02:36:26.151Z,0
2017-01-16T02:38:38.437Z,0
2017-01-16T02:40:50.817Z,0
2017-01-16T02:43:03.096Z,0
2017-01-16T02:45:15.328Z,0
2017-01-16T02:47:22.712Z,0
2017-01-16T02:49:35.056Z,0
2017-01-16T02:51:48.428Z,0
2017-01-16T02:54:02.630Z,0
2017-01-16T02:56:09.930Z,0
2017-01-16T02:58:22.199Z,0
2017-01-16T03:00:34.515Z,0
2017-01-16T03:02:47.100Z,0
2017-01-16T03:04:59.232Z,0
2017-01-16T03:07:06.388Z,0
2017-01-16T03:09:18.642Z,0
2017-01-16T03:11:30.990Z,0
2017-01-16T03:13:43.248Z,0
2017-01-16T03:15:55.366Z,0
2017-01-16T03:18:07.598Z,0
2017-01-16T03:20:19.757Z,0
2017-01-16T03:22:31.937Z,0
2017-01-16T03:24:44.321Z,0
2017-01-16T03:26:56.647Z,0
2017-01-16T03:29:08.794Z,0
2017-01-16T03:31:21.194Z,0
2017-01-16T03:33:34.478Z,0
2017-01-16T03:35:47.436Z,0
2017-01-16T03:37:59.610Z,0
2017-01-16T03:40:06.832Z,0
2017-01-16T03:42:19.294Z,0
2017-01-16T03:44:26.635Z,0
2017-01-16T03:46:38.966Z,0
2017-01-16T03:48:51.207Z,0
2017-01-16T03:51:03.477Z,0
2017-01-16T03:53:15.808Z,0
2017-01-16T03:55:28.130Z,0
2017-01-16T03:57:40.305Z,0
2017-01-16T03:59:52.641Z,0
2017-01-16T04:02:06.019Z,0
2017-01-16T04:04:13.482Z,0
2017-01-16T04:06:25.755Z,0
2017-01-16T04:08:38.109Z,0
2017-01-16T04:10:50.827Z,0
2017-01-16T04:13:03.172Z,0
2017-01-16T04:15:15.502Z,0
2017-01-16T04:17:27.907Z,0
2017-01-16T04:19:40.402Z,0
2017-01-16T04:21:48.188Z,0
2017-01-16T04:24:00.481Z,0
2017-01-16T04:26:12.735Z,0
2017-01-16T04:28:25.131Z,0
2017-01-16T04:30:37.669Z,0
2017-01-16T04:32:49.966Z,0
2017-01-16T04:34:57.415Z,0
2017-01-16T04:37:04.733Z,0
2017-01-16T04:39:16.954Z,0
2017-01-16T04:41:29.375Z,0
2017-01-16T04:43:41.863Z,0
2017-01-16T04:45:54.183Z,0
2017-01-16T04:48:06.569Z,0
2017-01-16T04:50:18.709Z,0
2017-01-16T04:52:30.996Z,0
2017-01-16T04:54:43.403Z,0
2017-01-16T04:56:55.793Z,0
2017-01-16T04:59:08.049Z,0
2017-01-16T05:01:20.368Z,0
2017-01-16T05:03:32.610Z,0
2017-01-16T05:05:44.945Z,0
2017-01-16T05:07:57.135Z,0
2017-01-16T05:10:09.465Z,0
2017-01-16T05:12:21.854Z,0
2017-01-16T05:14:34.090Z,0
2017-01-16T05:16:46.369Z,0
2017-01-16T05:18:59.013Z,0
2017-01-16T05:21:11.276Z,0
2017-01-16T05:23:23.557Z,0
2017-01-16T05:25:35.882Z,0
2017-01-16T05:27:48.176Z,0
2017-01-16T05:29:55.455Z,0
2017-01-16T05:32:07.790Z,0
2017-01-16T05:34:10.102Z,0
2017-01-16T05:36:17.429Z,0
2017-01-16T05:38:29.599Z,0
2017-01-16T05:40:41.913Z,0
2017-01-16T05:42:49.303Z,0
2017-01-16T05:44:56.508Z,0
2017-01-16T05:47:08.884Z,0
2017-01-16T05:49:21.153Z,0
2017-01-16T05:51:33.883Z,0
2017-01-16T05:53:46.398Z,0
2017-01-16T05:55:59.695Z,0
2017-01-16T05:58:11.947Z,0
2017-01-16T06:00:24.136Z,0
2017-01-16T06:02:36.456Z,0
2017-01-16T06:04:48.962Z,0
2017-01-16T06:06:56.406Z,0
2017-01-16T06:09:08.753Z,0
2017-01-16T06:11:21.021Z,0
2017-01-16T06:13:34.251Z,0
2017-01-16T06:15:46.406Z,0
2017-01-16T06:17:58.644Z,0
2017-01-16T06:20:11.183Z,0
2017-01-16T06:22:19.545Z,0
2017-01-16T06:24:31.944Z,0
2017-01-16T06:26:44.693Z,0
2017-01-16T06:28:57.247Z,0
2017-01-16T06:31:09.457Z,0
2017-01-16T06:33:21.726Z,0
2017-01-16T06:35:28.973Z,0
2017-01-16T06:37:41.295Z,0
2017-01-16T06:39:53.638Z,0
2017-01-16T06:42:01.107Z,0
2017-01-16T06:44:13.316Z,0
2017-01-16T06:46:25.578Z,0
2017-01-16T06:48:32.936Z,0
2017-01-16T06:50:45.344Z,0
2017-01-16T06:52:57.606Z,0
2017-01-16T06:55:09.856Z,0
2017-01-16T06:57:22.127Z,0
2017-01-16T06:59:34.511Z,0
2017-01-16T07:01:47.114Z,0
2017-01-16T07:03:59.555Z,5
2017-01-16T07:06:11.827Z,5
2017-01-16T07:08:24.368Z,5
2017-01-16T07:10:36.566Z,5
2017-01-16T07:12:48.691Z,5
2017-01-16T07:14:51.117Z,10
2017-01-16T07:16:59.582Z,10
2017-01-16T07:19:11.811Z,10
2017-01-16T07:21:24.262Z,10
2017-01-16T07:23:31.699Z,15
2017-01-16T07:25:44.368Z,15
2017-01-16T07:27:57.260Z,15
2017-01-16T07:30:13.251Z,15
2017-01-16T07:32:26.258Z,20
2017-01-16T07:34:33.745Z,20
2017-01-16T07:36:46.494Z,20
2017-01-16T07:38:54.708Z,25
2017-01-16T07:41:02.392Z,25
2017-01-16T07:43:14.843Z,30
2017-01-16T07:45:27.278Z,30
2017-01-16T07:47:29.889Z,30
2017-01-16T07:49:42.227Z,35
2017-01-16T07:51:54.712Z,35
2017-01-16T07:54:07.190Z,35
2017-01-16T07:56:19.466Z,170
2017-01-16T07:58:31.992Z,170
2017-01-16T08:00:39.355Z,170
2017-01-16T08:02:51.555Z,180
2017-01-16T08:05:03.869Z,195
2017-01-16T08:07:15.993Z,205
2017-01-16T08:09:28.401Z,215
2017-01-16T08:11:35.890Z,230
2017-01-16T08:13:48.315Z,245
2017-01-16T08:16:00.564Z,250
2017-01-16T08:18:12.810Z,245
2017-01-16T08:20:25.340Z,250
2017-01-16T08:22:37.516Z,265
2017-01-16T08:24:49.834Z,285
2017-01-16T08:27:02.200Z,300
2017-01-16T08:29:14.448Z,315
2017-01-16T08:31:26.688Z,320
2017-01-16T08:33:38.829Z,330
2017-01-16T08:35:51.148Z,350
2017-01-16T08:37:58.444Z,350
2017-01-16T08:40:10.772Z,360
2017-01-16T08:42:23.109Z,395
2017-01-16T08:44:35.529Z,415
2017-01-16T08:46:48.269Z,415
2017-01-16T08:49:00.688Z,420
2017-01-16T08:51:13.058Z,415
2017-01-16T08:53:20.409Z,400
2017-01-16T08:55:32.818Z,405
2017-01-16T08:57:45.119Z,385
2017-01-16T08:59:57.275Z,415
2017-01-16T09:02:09.488Z,465
2017-01-16T09:04:21.760Z,480
2017-01-16T09:06:34.815Z,475
2017-01-16T09:08:47.535Z,415
2017-01-16T09:11:00.007Z,425
2017-01-16T09:13:12.268Z,470
2017-01-16T09:15:27.923Z,495
2017-01-16T09:17:40.610Z,495
2017-01-16T09:19:48.222Z,485
2017-01-16T09:22:00.626Z,480
2017-01-16T09:24:12.920Z,500
2017-01-16T09:26:25.358Z,505
2017-01-16T09:28:37.716Z,520
2017-01-16T09:30:49.982Z,540
2017-01-16T09:33:02.306Z,550
2017-01-16T09:35:09.709Z,595
2017-01-16T09:37:17.095Z,605
2017-01-16T09:39:29.227Z,555
2017-01-16T09:41:36.417Z,520
2017-01-16T09:43:55.635Z,515
2017-01-16T09:46:20.903Z,560
2017-01-16T09:48:35.459Z,585
2017-01-16T09:50:53.303Z,570
2017-01-16T09:53:13.975Z,590
2017-01-16T09:55:26.447Z,600
2017-01-16T09:57:39.007Z,575
2017-01-16T09:59:51.373Z,575
2017-01-16T10:02:03.645Z,605
2017-01-16T10:04:15.947Z,610
2017-01-16T10:06:23.377Z,610
2017-01-16T10:08:35.602Z,585
2017-01-16T10:10:47.985Z,555
2017-01-16T10:13:00.412Z,490
2017-01-16T10:15:12.659Z,490
2017-01-16T10:17:25.066Z,535
2017-01-16T10:19:37.222Z,560
2017-01-16T10:21:49.563Z,600
2017-01-16T10:24:03.091Z,620
2017-01-16T10:26:13.956Z,610
2017-01-16T10:28:26.306Z,580
2017-01-16T10:30:39.695Z,590
2017-01-16T10:32:47.158Z,630
2017-01-16T10:34:59.570Z,625
2017-01-16T10:37:11.786Z,635
2017-01-16T10:39:24.158Z,660
2017-01-16T10:41:36.324Z,650
2017-01-16T10:43:48.653Z,655
2017-01-16T10:46:01.055Z,660
2017-01-16T10:48:13.361Z,680
2017-01-16T10:50:25.722Z,810
2017-01-16T10:52:37.982Z,895
2017-01-16T10:54:50.194Z,990
2017-01-16T10:57:02.522Z,1005
2017-01-16T10:59:09.989Z,1025
2017-01-16T11:01:17.299Z,1015
2017-01-16T11:03:23.058Z,920
2017-01-16T11:05:35.549Z,805
2017-01-16T11:07:38.004Z,745
2017-01-16T11:09:50.407Z,735
2017-01-16T11:12:02.699Z,720
2017-01-16T11:14:15.191Z,765
2017-01-16T11:16:12.683Z,830
2017-01-16T11:18:24.963Z,860
2017-01-16T11:20:37.243Z,880
2017-01-16T11:22:39.503Z,850
2017-01-16T11:24:51.737Z,790
2017-01-16T11:27:03.983Z,750
2017-01-16T11:29:16.182Z,680
2017-01-16T11:31:23.334Z,625
2017-01-16T11:33:30.507Z,575
2017-01-16T11:35:37.780Z,520
2017-01-16T11:37:45.066Z,460
2017-01-16T11:39:57.406Z,425
2017-01-16T11:42:09.886Z,405
2017-01-16T11:44:22.262Z,415
2017-01-16T11:46:34.520Z,425
2017-01-16T11:48:46.855Z,450
2017-01-16T11:50:59.106Z,465
2017-01-16T11:53:11.360Z,445
2017-01-16T11:55:23.530Z,450
2017-01-16T11:57:35.838Z,470
2017-01-16T11:59:48.281Z,505
2017-01-16T12:02:00.561Z,550
2017-01-16T12:04:12.848Z,580
2017-01-16T12:06:20.092Z,645
2017-01-16T12:08:32.443Z,705
2017-01-16T12:10:44.700Z,720
2017-01-16T12:12:52.174Z,705
2017-01-16T12:15:04.794Z,705
2017-01-16T12:17:17.227Z,685
2017-01-16T12:19:29.470Z,660
2017-01-16T12:21:41.764Z,645
2017-01-16T12:23:53.902Z,645
2017-01-16T12:25:56.427Z,575
2017-01-16T12:28:08.757Z,555
2017-01-16T12:30:21.281Z,570
2017-01-16T12:32:33.515Z,560
2017-01-16T12:34:45.734Z,615
2017-01-16T12:36:58.153Z,655
2017-01-16T12:39:10.326Z,700
2017-01-16T12:41:22.593Z,710
2017-01-16T12:43:29.911Z,710
2017-01-16T12:45:42.051Z,705
2017-01-16T12:47:54.570Z,670
2017-01-16T12:50:10.734Z,700
2017-01-16T12:52:23.060Z,690
2017-01-16T12:54:30.507Z,700
2017-01-16T12:56:37.844Z,635
2017-01-16T12:58:50.186Z,585
2017-01-16T13:01:02.448Z,545
2017-01-16T13:03:14.603Z,525
2017-01-16T13:05:26.832Z,520
2017-01-16T13:07:34.219Z,520
2017-01-16T13:09:41.591Z,540
2017-01-16T13:11:53.730Z,540
2017-01-16T13:14:05.961Z,565
2017-01-16T13:16:18.355Z,580
2017-01-16T13:18:30.607Z,580
2017-01-16T13:20:43.020Z,555
2017-01-16T13:22:50.441Z,520
2017-01-16T13:25:02.714Z,500
2017-01-16T13:27:15.225Z,485
2017-01-16T13:29:27.477Z,450
2017-01-16T13:31:34.777Z,425
2017-01-16T13:33:47.045Z,375
2017-01-16T13:35:59.654Z,335
2017-01-16T13:38:11.923Z,240
2017-01-16T13:40:24.045Z,245
2017-01-16T13:42:31.397Z,295
2017-01-16T13:44:43.679Z,325
2017-01-16T13:46:45.986Z,335
2017-01-16T13:48:53.428Z,365
2017-01-16T13:51:05.661Z,360
2017-01-16T13:53:17.959Z,360
2017-01-16T13:55:30.387Z,375
2017-01-16T13:57:42.801Z,385
2017-01-16T13:59:55.582Z,395
2017-01-16T14:02:07.921Z,395
2017-01-16T14:04:15.340Z,405
2017-01-16T14:06:27.595Z,390
2017-01-16T14:08:39.800Z,390
2017-01-16T14:10:52.069Z,370
2017-01-16T14:13:04.220Z,365
2017-01-16T14:15:16.517Z,350
2017-01-16T14:17:23.818Z,335
2017-01-16T14:19:31.050Z,320
2017-01-16T14:21:43.380Z,305
2017-01-16T14:23:55.766Z,300
2017-01-16T14:26:03.072Z,290
2017-01-16T14:28:10.310Z,280
2017-01-16T14:30:22.591Z,270
2017-01-16T14:32:35.223Z,255
2017-01-16T14:34:47.680Z,240
2017-01-16T14:37:00.084Z,235
2017-01-16T14:39:17.666Z,220
2017-01-16T14:41:24.915Z,200
2017-01-16T14:43:37.300Z,195
2017-01-16T14:45:49.798Z,185
2017-01-16T14:47:57.172Z,175
2017-01-16T14:50:09.660Z,165
2017-01-16T14:52:22.168Z,155
2017-01-16T14:54:34.481Z,150
2017-01-16T14:56:49.562Z,145
2017-01-16T14:58:57.224Z,135
2017-01-16T15:01:09.526Z,120
2017-01-16T15:03:21.930Z,110
2017-01-16T15:05:34.343Z,100
2017-01-16T15:07:47.655Z,95
2017-01-16T15:10:00.122Z,75
2017-01-16T15:12:12.619Z,70
2017-01-16T15:14:20.202Z,70
2017-01-16T15:16:32.718Z,70
2017-01-16T15:18:45.160Z,65
2017-01-16T15:20:57.508Z,55
2017-01-16T15:23:09.950Z,50
2017-01-16T15:25:22.392Z,50
2017-01-16T15:27:29.769Z,55
2017-01-16T15:29:42.183Z,45
2017-01-16T15:31:54.574Z,40
2017-01-16T15:34:06.959Z,35
2017-01-16T15:36:14.304Z,35
2017-01-16T15:38:26.634Z,35
2017-01-16T15:40:29.092Z,30
2017-01-16T15:42:41.405Z,25
2017-01-16T15:44:53.823Z,25
2017-01-16T15:47:06.289Z,20
2017-01-16T15:49:19.672Z,15
2017-01-16T15:51:32.323Z,15
2017-01-16T15:53:44.594Z,10
2017-01-16T15:55:51.876Z,10
2017-01-16T15:58:04.318Z,5
2017-01-16T16:00:11.582Z,5
2017-01-16T16:02:24.013Z,5
2017-01-16T16:04:36.349Z,0
2017-01-16T16:06:43.687Z,0
2017-01-16T16:08:56.075Z,0
2017-01-16T16:11:08.421Z,0
2017-01-16T16:13:20.840Z,0
2017-01-16T16:15:33.243Z,0
2017-01-16T16:17:40.974Z,0
2017-01-16T16:19:53.910Z,0
2017-01-16T16:22:06.180Z,0
2017-01-16T16:24:18.539Z,0
2017-01-16T16:26:26.107Z,0
2017-01-16T16:28:38.726Z,0
2017-01-16T16:30:51.016Z,0
2017-01-16T16:33:03.465Z,0
2017-01-16T16:35:15.812Z,0
2017-01-16T16:37:28.455Z,0
2017-01-16T16:39:35.826Z,0
2017-01-16T16:41:48.254Z,0
2017-01-16T16:43:55.515Z,0
2017-01-16T16:46:07.922Z,0
2017-01-16T16:48:15.252Z,0
2017-01-16T16:50:27.574Z,0
2017-01-16T16:52:39.745Z,0
2017-01-16T16:54:52.489Z,0
2017-01-16T16:56:59.856Z,0
2017-01-16T16:59:12.158Z,0
2017-01-16T17:01:19.532Z,0
2017-01-16T17:03:31.941Z,0
2017-01-16T17:05:44.277Z,0
2017-01-16T17:07:51.953Z,0
2017-01-16T17:10:04.526Z,0
2017-01-16T17:12:16.792Z,0
2017-01-16T17:14:29.165Z,0
2017-01-16T17:16:41.735Z,0
2017-01-16T17:18:54.187Z,0
2017-01-16T17:21:06.736Z,0
2017-01-16T17:23:19.039Z,0
2017-01-16T17:25:33.278Z,0
2017-01-16T17:27:46.097Z,0
2017-01-16T17:29:54.363Z,0
2017-01-16T17:32:07.743Z,0
2017-01-16T17:34:20.241Z,0
2017-01-16T17:36:32.621Z,0
2017-01-16T17:38:44.924Z,0
2017-01-16T17:40:57.500Z,0
2017-01-16T17:43:10.323Z,0
2017-01-16T17:45:22.700Z,0
2017-01-16T17:47:35.014Z,0
2017-01-16T17:49:44.016Z,0
2017-01-16T17:52:00.207Z,0
2017-01-16T17:54:07.731Z,0
2017-01-16T17:56:20.216Z,0
2017-01-16T17:58:27.752Z,0
2017-01-16T18:00:35.519Z,0
2017-01-16T18:02:47.917Z,0
2017-01-16T18:05:00.458Z,0
2017-01-16T18:07:12.710Z,0
2017-01-16T18:09:25.212Z,0
2017-01-16T18:11:37.650Z,0
2017-01-16T18:13:45.139Z,0
2017-01-16T18:15:57.653Z,0
2017-01-16T18:18:10.272Z,0
2017-01-16T18:20:23.119Z,0
2017-01-16T18:22:35.977Z,0
2017-01-16T18:24:48.349Z,0
2017-01-16T18:27:00.715Z,0
2017-01-16T18:29:13.166Z,0
2017-01-16T18:31:25.592Z,0
2017-01-16T18:33:38.038Z,0
2017-01-16T18:35:50.675Z,0
2017-01-16T18:38:03.132Z,0
2017-01-16T18:40:15.641Z,0
2017-01-16T18:42:28.438Z,0
2017-01-16T18:44:40.789Z,0
2017-01-16T18:46:53.344Z,0
2017-01-16T18:49:05.891Z,0
2017-01-16T18:51:18.370Z,0
2017-01-16T18:53:30.728Z,0
2017-01-16T18:55:43.173Z,0
2017-01-16T18:57:55.773Z,0
2017-01-16T19:00:08.562Z,0
2017-01-16T19:02:20.934Z,0
2017-01-16T19:04:33.313Z,0
2017-01-16T19:06:45.882Z,0
2017-01-16T19:08:58.377Z,0
2017-01-16T19:11:10.844Z,0
2017-01-16T19:13:23.166Z,0
2017-01-16T19:15:30.702Z,0
2017-01-16T19:17:38.090Z,0
2017-01-16T19:19:50.680Z,0
2017-01-16T19:22:03.146Z,0
2017-01-16T19:24:15.667Z,0
2017-01-16T19:26:28.008Z,0
2017-01-16T19:28:40.223Z,0
2017-01-16T19:30:52.586Z,0
2017-01-16T19:33:04.980Z,0
2017-01-16T19:35:17.497Z,0
2017-01-16T19:37:30.106Z,0
2017-01-16T19:39:42.887Z,0
2017-01-16T19:41:56.321Z,0
2017-01-16T19:44:03.732Z,0
2017-01-16T19:46:16.147Z,0
2017-01-16T19:48:28.473Z,0
2017-01-16T19:50:40.801Z,0
2017-01-16T19:52:54.501Z,0
2017-01-16T19:55:07.521Z,0
2017-01-16T19:57:20.855Z,0
2017-01-16T19:59:34.340Z,0
2017-01-16T20:01:48.722Z,0
2017-01-16T20:04:02.408Z,0
2017-01-16T20:06:10.547Z,0
2017-01-16T20:08:18.210Z,0
2017-01-16T20:10:30.534Z,0
2017-01-16T20:12:47.015Z,0
2017-01-16T20:15:05.338Z,0
2017-01-16T20:17:26.204Z,0
2017-01-16T20:19:38.662Z,0
2017-01-16T20:21:51.528Z,0
2017-01-16T20:24:04.110Z,0
2017-01-16T20:26:12.797Z,0
2017-01-16T20:28:25.601Z,0
2017-01-16T20:30:38.016Z,0
2017-01-16T20:32:45.576Z,0
2017-01-16T20:34:57.920Z,0
2017-01-16T20:37:10.245Z,0
2017-01-16T20:39:22.584Z,0
2017-01-16T20:41:34.957Z,0
2017-01-16T20:43:47.390Z,0
2017-01-16T20:45:59.990Z,0
2017-01-16T20:48:12.580Z,0
2017-01-16T20:50:25.411Z,0
2017-01-16T20:52:37.879Z,0
2017-01-16T20:54:50.253Z,0
2017-01-16T20:57:02.617Z,0
2017-01-16T20:59:14.882Z,0
2017-01-16T21:01:27.384Z,0
2017-01-16T21:03:39.678Z,0
2017-01-16T21:05:52.052Z,0
2017-01-16T21:08:04.482Z,0
2017-01-16T21:10:16.803Z,0
2017-01-16T21:12:29.165Z,0
2017-01-16T21:14:41.493Z,0
2017-01-16T21:16:53.725Z,0
2017-01-16T21:19:06.032Z,0
2017-01-16T21:21:13.514Z,0
2017-01-16T21:23:26.126Z,0
2017-01-16T21:25:39.331Z,0
2017-01-16T21:27:55.260Z,0
2017-01-16T21:30:08.373Z,0
2017-01-16T21:32:20.831Z,0
2017-01-16T21:34:36.820Z,0
2017-01-16T21:36:49.532Z,0
2017-01-16T21:39:02.061Z,0
2017-01-16T21:41:14.455Z,0
2017-01-16T21:43:21.979Z,0
2017-01-16T21:45:29.459Z,0
2017-01-16T21:47:42.379Z,0
2017-01-16T21:49:49.716Z,0
2017-01-16T21:52:01.907Z,0
2017-01-16T21:54:14.398Z,0
2017-01-16T21:56:43.213Z,0
2017-01-16T21:59:10.901Z,0
2017-01-16T22:01:23.739Z,0
2017-01-16T22:03:36.037Z,0
2017-01-16T22:06:04.064Z,0
2017-01-16T22:08:16.429Z,0
2017-01-16T22:10:28.917Z,0
2017-01-16T22:12:36.321Z,0
2017-01-16T22:14:48.457Z,0
2017-01-16T22:17:04.170Z,0
2017-01-16T22:19:22.339Z,0
2017-01-16T22:21:34.373Z,0
2017-01-16T22:23:51.781Z,0
2017-01-16T22:26:07.651Z,0
2017-01-16T22:28:26.538Z,0
2017-01-16T22:30:37.141Z,0
2017-01-16T22:33:12.244Z,0
2017-01-16T22:35:28.487Z,0
2017-01-16T22:37:47.485Z,0
2017-01-16T22:40:04.985Z,0
2017-01-16T22:42:38.590Z,0
2017-01-16T22:44:54.310Z,0
2017-01-16T22:47:14.643Z,0
2017-01-16T22:49:34.293Z,0
2017-01-16T22:51:51.366Z,0
2017-01-16T22:54:08.897Z,0
2017-01-16T22:56:16.364Z,0
2017-01-16T22:58:29.235Z,0
2017-01-16T23:00:42.017Z,0
2017-01-16T23:02:58.463Z,0
2017-01-16T23:05:06.165Z,0
2017-01-16T23:07:18.496Z,0
2017-01-16T23:09:31.176Z,0
2017-01-16T23:11:38.456Z,0
2017-01-16T23:13:50.971Z,0
2017-01-16T23:16:03.159Z,0
2017-01-16T23:18:15.569Z,0
2017-01-16T23:20:22.821Z,0
2017-01-16T23:22:35.284Z,0
2017-01-16T23:24:47.496Z,0
2017-01-16T23:26:59.641Z,0
2017-01-16T23:29:11.884Z,0
2017-01-16T23:31:19.308Z,0
2017-01-16T23:33:31.634Z,0
2017-01-16T23:35:43.887Z,0
2017-01-16T23:37:56.147Z,0
2017-01-16T23:40:03.379Z,0
2017-01-16T23:42:10.723Z,0
2017-01-16T23:44:23.563Z,0
2017-01-16T23:46:35.895Z,0
2017-01-16T23:48:43.046Z,0
2017-01-16T23:50:55.258Z,0
2017-01-16T23:53:07.460Z,0
2017-01-16T23:55:14.765Z,0
2017-01-16T23:57:38.309Z,0
2017-01-16T23:59:50.582Z,0
